Terminal Aerodrome Forecast
Issued by NWS Boston, MA

Home | Current Version | Previous Version | Text Only | Print | Product List | Glossary On
Versions: 1 2 3 4 5 6 7 8 9 10 11 12 13 14 15 16 17 18 19 20 21
000
FTUS41 KBOX 271738
TAFORH
TAF
KORH 271738Z 2718/2818 06011G20KT P6SM VCSH OVC012
     FM272300 05009KT 4SM BR OVC010
     FM280700 04007KT 5SM BR OVC003
     FM281300 04005KT P6SM OVC008
     FM281600 VRB03KT P6SM OVC015=

USA.gov is the U.S. government's official web portal to all federal, state and local government web resources and services.